createdAt,value
2022-08-22T00:00:07.415Z,2.20
2022-08-22T00:02:34.151Z,2.40
2022-08-22T00:02:42.774Z,2.00
2022-08-22T00:02:53.997Z,1.70
2022-08-22T00:03:09.242Z,2.10
2022-08-22T00:04:33.508Z,2.10
2022-08-22T00:06:01.637Z,2.60
2022-08-22T00:08:28.902Z,2.80
2022-08-22T00:10:55.818Z,2.40
2022-08-22T00:14:20.982Z,2.50
2022-08-22T00:18:44.217Z,2.90
2022-08-22T00:20:13.411Z,2.70
2022-08-22T00:25:06.186Z,2.40
2022-08-22T00:28:02.602Z,2.00
2022-08-22T00:34:52.105Z,2.60
2022-08-22T00:37:48.752Z,2.70
2022-08-22T00:43:10.075Z,2.40
2022-08-22T00:45:08.031Z,2.70
2022-08-22T00:48:04.042Z,2.50
2022-08-22T00:50:02.020Z,3.00
2022-08-22T00:53:56.147Z,3.10
2022-08-22T00:55:54.136Z,2.60
2022-08-22T00:57:52.225Z,2.70
2022-08-22T01:00:19.188Z,2.20
2022-08-22T01:03:44.201Z,2.20
2022-08-22T01:06:11.186Z,2.50
2022-08-22T01:14:34.944Z,2.70
2022-08-22T01:27:05.037Z,2.70
2022-08-22T01:30:30.117Z,2.70
2022-08-22T01:33:55.550Z,2.70
2022-08-22T01:40:53.404Z,2.70
2022-08-22T01:47:08.374Z,2.60
2022-08-22T01:56:50.977Z,2.60
2022-08-22T01:58:19.944Z,2.90
2022-08-22T02:00:47.231Z,2.60
2022-08-22T02:02:16.209Z,2.90
2022-08-22T02:04:14.237Z,3.00
2022-08-22T02:11:31.433Z,3.10
2022-08-22T02:18:48.985Z,3.10
2022-08-22T02:20:46.989Z,2.60
2022-08-22T02:24:41.061Z,2.90
2022-08-22T02:30:31.127Z,2.80
2022-08-22T02:34:25.230Z,3.20
2022-08-22T02:35:54.206Z,3.10
2022-08-22T02:37:52.271Z,2.60
2022-08-22T02:39:21.847Z,2.40
2022-08-22T02:44:13.265Z,2.90
2022-08-22T02:45:42.204Z,2.90
2022-08-22T02:56:51.889Z,3.80
2022-08-22T02:59:18.928Z,3.20
2022-08-22T03:00:47.934Z,2.80
2022-08-22T03:02:16.876Z,3.30
2022-08-22T03:04:14.910Z,2.60
2022-08-22T03:06:41.862Z,2.60
2022-08-22T03:16:24.114Z,2.80
2022-08-22T03:17:53.308Z,2.70
2022-08-22T03:21:47.753Z,2.90
2022-08-22T03:26:10.883Z,3.50
2022-08-22T03:27:39.843Z,2.70
2022-08-22T03:31:04.943Z,3.20
2022-08-22T03:36:55.280Z,2.70
2022-08-22T03:41:48.016Z,3.30
2022-08-22T03:44:16.180Z,2.70
2022-08-22T03:46:14.050Z,3.30
2022-08-22T03:50:07.684Z,2.90
2022-08-22T03:51:36.681Z,2.70
2022-08-22T03:53:34.703Z,3.40
2022-08-22T03:55:32.679Z,3.90
2022-08-22T03:57:02.261Z,3.20
2022-08-22T04:06:44.673Z,3.20
2022-08-22T04:09:11.643Z,4.00
2022-08-22T04:11:38.725Z,3.50
2022-08-22T04:15:03.781Z,3.20
2022-08-22T04:22:50.698Z,3.80
2022-08-22T04:26:16.017Z,3.00
2022-08-22T04:27:45.409Z,3.20
2022-08-22T04:30:41.480Z,3.20
2022-08-22T04:34:35.545Z,3.50
2022-08-22T04:39:27.686Z,4.10
2022-08-22T04:42:52.743Z,4.10
2022-08-22T04:45:48.913Z,3.40
2022-08-22T04:50:43.205Z,3.90
2022-08-22T04:56:07.136Z,3.40
2022-08-22T05:00:55.149Z,3.30
2022-08-22T05:02:24.133Z,3.50
2022-08-22T05:06:18.223Z,3.60
2022-08-22T05:09:43.256Z,3.50
2022-08-22T05:11:12.250Z,3.90
2022-08-22T05:13:10.315Z,5.20
2022-08-22T05:15:37.280Z,3.50
2022-08-22T05:17:06.276Z,4.30
2022-08-22T05:19:33.579Z,4.10
2022-08-22T05:25:52.852Z,3.70
2022-08-22T05:31:25.114Z,3.70
2022-08-22T05:34:21.897Z,3.40
2022-08-22T05:37:37.957Z,4.20
2022-08-22T05:40:25.004Z,3.40
2022-08-22T05:41:54.002Z,3.20
2022-08-22T05:43:51.974Z,3.60
2022-08-22T05:46:19.132Z,3.10
2022-08-22T05:47:48.100Z,3.60
2022-08-22T05:50:15.081Z,5.00
2022-08-22T05:52:13.135Z,3.10
2022-08-22T05:56:36.286Z,3.10
2022-08-22T05:59:32.340Z,3.50
2022-08-22T06:01:01.344Z,3.60
2022-08-22T06:04:57.020Z,3.20
2022-08-22T06:06:25.962Z,3.40
2022-08-22T06:09:22.294Z,3.40
2022-08-22T06:21:59.473Z,3.80
2022-08-22T06:27:49.808Z,4.10
2022-08-22T06:34:01.912Z,3.60
2022-08-22T06:36:58.029Z,3.60
2022-08-22T06:42:48.191Z,3.20
2022-08-22T06:53:58.103Z,3.80
2022-08-22T06:56:25.545Z,3.40
2022-08-22T06:58:53.261Z,3.40
2022-08-22T07:01:49.643Z,3.60
2022-08-22T07:07:39.934Z,3.60
2022-08-22T07:09:38.196Z,3.40
2022-08-22T07:12:34.238Z,3.50
2022-08-22T07:15:01.557Z,3.30
2022-08-22T07:16:59.528Z,3.60
2022-08-22T07:19:26.538Z,3.50
2022-08-22T07:24:48.521Z,3.40
2022-08-22T07:26:17.274Z,3.70
2022-08-22T07:31:09.414Z,4.40
2022-08-22T07:35:03.584Z,3.70
2022-08-22T07:37:30.567Z,3.80
2022-08-22T07:53:32.061Z,4.20
2022-08-22T07:56:57.857Z,3.60
2022-08-22T07:58:26.796Z,4.10
2022-08-22T07:59:56.133Z,4.30
2022-08-22T08:02:51.830Z,4.20
2022-08-22T08:04:50.203Z,3.60
2022-08-22T08:11:09.546Z,5.20
2022-08-22T08:12:38.555Z,4.40
2022-08-22T08:16:32.618Z,4.10
2022-08-22T08:21:24.818Z,4.00
2022-08-22T08:22:53.843Z,4.20
2022-08-22T08:24:22.771Z,5.70
2022-08-22T08:30:42.159Z,4.00
2022-08-22T08:32:40.132Z,4.10
2022-08-22T08:34:09.295Z,3.80
2022-08-22T08:36:36.293Z,4.70
2022-08-22T08:40:30.565Z,4.90
2022-08-22T08:45:22.798Z,4.80
2022-08-22T08:47:49.891Z,5.30
2022-08-22T08:51:15.078Z,4.30
2022-08-22T08:53:13.096Z,3.40
2022-08-22T08:55:19.979Z,4.10
2022-08-22T08:56:42.743Z,3.70
2022-08-22T08:59:10.269Z,3.90
2022-08-22T09:04:31.462Z,4.00
2022-08-22T09:07:27.466Z,4.60
2022-08-22T09:13:47.415Z,3.90
2022-08-22T09:16:46.296Z,4.60
2022-08-22T09:20:39.073Z,4.20
2022-08-22T09:23:10.061Z,4.30
2022-08-22T09:27:59.431Z,4.30
2022-08-22T09:30:28.758Z,4.10
2022-08-22T09:33:50.692Z,4.70
2022-08-22T09:38:14.510Z,4.30
2022-08-22T09:40:17.105Z,5.30
2022-08-22T09:42:44.927Z,3.80
2022-08-22T09:45:09.176Z,3.50
2022-08-22T09:47:39.476Z,5.40
2022-08-22T09:51:28.708Z,4.50
2022-08-22T09:52:46.594Z,4.40
2022-08-22T09:56:15.712Z,4.60
2022-08-22T09:58:11.223Z,5.00
2022-08-22T10:00:37.121Z,4.30
2022-08-22T10:04:03.124Z,4.60
2022-08-22T10:06:00.454Z,4.90
2022-08-22T10:07:29.457Z,5.00
2022-08-22T10:09:56.862Z,4.40
2022-08-22T10:12:24.780Z,4.10
2022-08-22T10:13:57.396Z,5.00
2022-08-22T10:15:23.330Z,3.90
2022-08-22T10:16:52.521Z,4.50
2022-08-22T10:19:19.569Z,5.20
2022-08-22T10:21:17.562Z,4.50
2022-08-22T10:22:46.647Z,3.90
2022-08-22T10:24:25.267Z,3.90
2022-08-22T10:25:46.844Z,4.00
2022-08-22T10:28:13.848Z,4.10
2022-08-22T10:29:42.849Z,3.90
2022-08-22T10:34:06.119Z,3.50
2022-08-22T10:37:31.360Z,4.60
2022-08-22T10:40:57.205Z,4.60
2022-08-22T10:42:54.931Z,4.80
2022-08-22T10:45:24.050Z,4.50
2022-08-22T10:48:50.399Z,3.90
2022-08-22T10:51:18.108Z,4.20
2022-08-22T11:03:10.703Z,4.10
2022-08-22T11:06:35.420Z,3.30
2022-08-22T11:08:04.864Z,3.90
2022-08-22T11:11:32.610Z,3.60
2022-08-22T11:14:27.603Z,3.30
2022-08-22T11:22:37.250Z,3.00
2022-08-22T11:24:46.493Z,3.20
2022-08-22T11:27:07.985Z,3.80
2022-08-22T11:28:38.100Z,3.80
2022-08-22T11:30:44.962Z,3.90
2022-08-22T11:33:47.108Z,3.40
2022-08-22T11:35:09.041Z,4.00
2022-08-22T11:37:04.617Z,3.30
2022-08-22T11:38:33.530Z,4.20
2022-08-22T11:40:03.702Z,3.60
2022-08-22T11:44:55.970Z,3.60
2022-08-22T11:49:20.148Z,3.40
2022-08-22T11:52:37.184Z,2.80
2022-08-22T11:56:05.734Z,3.30
2022-08-22T12:07:16.671Z,2.90
2022-08-22T12:13:07.235Z,4.40
2022-08-22T12:17:55.714Z,3.10
2022-08-22T12:19:03.789Z,3.30
2022-08-22T12:22:28.833Z,3.90
2022-08-22T12:24:57.780Z,3.40
2022-08-22T12:26:25.626Z,3.70
2022-08-22T12:29:51.969Z,2.90
2022-08-22T12:31:50.248Z,3.60
2022-08-22T12:34:17.229Z,3.00
2022-08-22T12:37:52.779Z,3.30
2022-08-22T12:43:07.777Z,4.00
2022-08-22T12:44:36.806Z,3.40
2022-08-22T12:46:05.814Z,3.90
2022-08-22T12:48:07.576Z,3.20
2022-08-22T12:49:36.187Z,3.20
2022-08-22T12:52:04.230Z,3.80
2022-08-22T13:03:15.435Z,2.70
2022-08-22T13:06:13.659Z,2.80
2022-08-22T13:08:38.851Z,2.50
2022-08-22T13:10:07.814Z,2.50
2022-08-22T13:11:36.813Z,3.00
2022-08-22T13:13:12.599Z,3.20
2022-08-22T13:16:03.427Z,2.60
2022-08-22T13:18:25.139Z,9.00
2022-08-22T13:21:34.615Z,2.80
2022-08-22T13:23:56.161Z,2.70
2022-08-22T13:26:33.600Z,3.30
2022-08-22T13:29:00.265Z,2.00
2022-08-22T13:30:21.717Z,3.20
2022-08-22T13:33:46.556Z,2.50
2022-08-22T13:37:11.730Z,2.50
2022-08-22T13:38:46.320Z,2.80
2022-08-22T13:40:10.829Z,1.90
2022-08-22T13:47:10.955Z,2.60
2022-08-22T13:50:09.043Z,2.60
2022-08-22T13:56:04.951Z,2.20
2022-08-22T13:59:01.073Z,2.30
2022-08-22T14:01:28.391Z,2.40
2022-08-22T14:03:26.242Z,3.10
2022-08-22T14:05:24.692Z,2.40
2022-08-22T14:07:24.048Z,2.10
2022-08-22T14:09:31.970Z,2.60
2022-08-22T14:13:45.083Z,3.20
2022-08-22T14:17:10.227Z,2.70
2022-08-22T14:19:08.171Z,2.40
2022-08-22T14:21:40.653Z,3.20
2022-08-22T14:24:03.503Z,2.50
2022-08-22T14:25:32.419Z,3.20
2022-08-22T14:27:05.305Z,2.40
2022-08-22T14:28:30.429Z,2.40
2022-08-22T14:31:00.650Z,3.10
2022-08-22T14:32:30.922Z,2.80
2022-08-22T14:34:54.737Z,2.40
2022-08-22T14:37:21.849Z,3.00
2022-08-22T14:39:19.959Z,2.80
2022-08-22T14:41:19.768Z,2.10
2022-08-22T14:47:32.285Z,2.80
2022-08-22T14:49:07.387Z,2.30
2022-08-22T14:50:36.739Z,2.40
2022-08-22T14:52:06.041Z,2.20
2022-08-22T14:54:04.223Z,2.30
2022-08-22T14:57:03.407Z,2.50
2022-08-22T14:58:33.385Z,2.20
2022-08-22T15:00:31.450Z,8.50
2022-08-22T15:03:02.768Z,12.00
2022-08-22T15:04:31.824Z,6.80
2022-08-22T15:08:27.630Z,4.60
2022-08-22T15:13:48.019Z,3.10
2022-08-22T15:15:53.424Z,2.30
2022-08-22T15:17:45.068Z,2.70
2022-08-22T15:19:14.065Z,2.60
2022-08-22T15:21:12.347Z,2.40
2022-08-22T15:22:41.335Z,2.00
2022-08-22T15:25:08.475Z,2.20
2022-08-22T15:29:32.469Z,2.00
2022-08-22T15:33:55.471Z,2.50
2022-08-22T15:36:22.768Z,2.10
2022-08-22T15:38:50.025Z,3.20
2022-08-22T15:41:17.637Z,2.10
2022-08-22T15:43:15.667Z,2.40
2022-08-22T15:47:43.875Z,2.30
2022-08-22T15:49:12.872Z,2.50
2022-08-22T15:54:13.161Z,2.10
2022-08-22T15:58:35.758Z,2.40
2022-08-22T16:00:12.386Z,2.30
2022-08-22T16:06:07.730Z,2.20
2022-08-22T16:07:37.382Z,2.20
2022-08-22T16:11:06.496Z,1.70
2022-08-22T16:14:33.161Z,2.20
2022-08-22T16:17:45.074Z,2.80
2022-08-22T16:19:43.024Z,1.90
2022-08-22T16:21:12.006Z,2.30
2022-08-22T16:22:44.527Z,2.40
2022-08-22T16:24:11.031Z,2.20
2022-08-22T16:27:07.555Z,2.30
2022-08-22T16:32:00.837Z,2.40
2022-08-22T16:35:55.559Z,1.90
2022-08-22T16:38:22.838Z,1.90
2022-08-22T16:43:15.635Z,2.20
2022-08-22T16:45:42.589Z,2.70
2022-08-22T16:47:11.632Z,2.50
2022-08-22T16:50:18.438Z,2.10
2022-08-22T16:56:41.601Z,3.20
2022-08-22T17:01:05.579Z,1.70
2022-08-22T17:05:58.613Z,2.10
2022-08-22T17:07:27.662Z,2.30
2022-08-22T17:09:26.197Z,2.20
2022-08-22T17:10:55.196Z,1.80
2022-08-22T17:13:22.316Z,2.00
2022-08-22T17:14:51.294Z,1.70
2022-08-22T17:16:20.344Z,2.00
2022-08-22T17:19:45.653Z,2.50
2022-08-22T17:24:38.431Z,2.20
2022-08-22T17:28:25.945Z,2.40
2022-08-22T17:34:45.943Z,2.40
2022-08-22T17:36:44.196Z,2.10
2022-08-22T17:39:11.353Z,2.80
2022-08-22T17:41:09.462Z,1.90
2022-08-22T17:44:34.591Z,1.90
2022-08-22T17:46:32.649Z,2.10
2022-08-22T17:49:29.716Z,2.00
2022-08-22T17:51:56.954Z,2.60
2022-08-22T17:56:20.796Z,2.50
2022-08-22T17:58:31.604Z,2.50
2022-08-22T18:00:47.758Z,1.90
2022-08-22T18:03:43.326Z,2.40
2022-08-22T18:05:12.675Z,2.10
2022-08-22T18:07:10.787Z,2.60
2022-08-22T18:09:16.014Z,2.40
2022-08-22T18:10:40.162Z,1.90
2022-08-22T18:12:09.292Z,2.10
2022-08-22T18:16:24.594Z,2.10
2022-08-22T18:18:21.894Z,2.10
2022-08-22T18:20:51.823Z,2.10
2022-08-22T18:22:20.848Z,2.20
2022-08-22T18:28:12.100Z,2.80
2022-08-22T18:30:44.040Z,1.90
2022-08-22T18:33:38.498Z,1.90
2022-08-22T18:36:07.011Z,2.00
2022-08-22T18:38:19.135Z,2.60
2022-08-22T18:41:31.589Z,2.80
2022-08-22T18:43:29.817Z,2.20
2022-08-22T18:52:17.475Z,2.10
2022-08-22T18:55:15.096Z,2.20
2022-08-22T19:00:08.107Z,2.80
2022-08-22T19:02:06.469Z,2.10
2022-08-22T19:03:22.302Z,2.10
2022-08-22T19:04:20.402Z,2.30
2022-08-22T19:05:33.129Z,2.50
2022-08-22T19:08:09.953Z,2.30
2022-08-22T19:10:06.979Z,2.00
2022-08-22T19:15:14.679Z,2.10
2022-08-22T19:20:36.719Z,2.10
2022-08-22T19:23:32.945Z,2.20
2022-08-22T19:26:00.015Z,2.20
2022-08-22T19:28:27.955Z,1.80
2022-08-22T19:31:24.150Z,2.40
2022-08-22T19:33:51.193Z,2.10
2022-08-22T19:37:45.869Z,2.20
2022-08-22T19:41:11.072Z,2.20
2022-08-22T19:44:37.018Z,2.50
2022-08-22T19:46:05.397Z,2.30
2022-08-22T19:54:20.873Z,2.70
2022-08-22T19:55:49.909Z,2.60
2022-08-22T19:58:46.051Z,2.40
2022-08-22T20:00:15.388Z,2.30
2022-08-22T20:02:13.076Z,2.80
2022-08-22T20:03:42.390Z,2.30
2022-08-22T20:06:21.962Z,2.40
2022-08-22T20:08:39.135Z,2.60
2022-08-22T20:10:07.053Z,3.20
2022-08-22T20:11:47.711Z,2.30
2022-08-22T20:17:37.436Z,2.70
2022-08-22T20:22:01.835Z,2.70
2022-08-22T20:24:00.392Z,2.50
2022-08-22T20:25:43.034Z,2.20
2022-08-22T20:27:57.267Z,2.00
2022-08-22T20:30:24.376Z,2.20
2022-08-22T20:32:22.681Z,2.20
2022-08-22T20:34:49.786Z,2.00
2022-08-22T20:36:27.656Z,2.20
2022-08-22T20:39:16.289Z,2.30
2022-08-22T20:41:20.179Z,2.50
2022-08-22T20:43:42.662Z,2.20
2022-08-22T20:47:07.764Z,2.70
2022-08-22T20:57:25.493Z,2.40
2022-08-22T20:59:53.112Z,2.40
2022-08-22T21:02:20.891Z,2.10
2022-08-22T21:05:17.632Z,2.40
2022-08-22T21:07:15.266Z,2.30
2022-08-22T21:11:41.393Z,2.60
2022-08-22T21:15:35.749Z,2.60
2022-08-22T21:17:34.443Z,2.20
2022-08-22T21:19:03.086Z,2.40
2022-08-22T21:26:02.817Z,2.60
2022-08-22T21:28:01.446Z,2.20
2022-08-22T21:32:24.757Z,2.70
2022-08-22T21:43:34.816Z,2.40
2022-08-22T21:45:04.049Z,2.20
2022-08-22T21:47:31.642Z,2.70
2022-08-22T21:51:25.187Z,2.30
2022-08-22T21:53:23.293Z,2.60
2022-08-22T21:57:46.940Z,2.80
2022-08-22T21:59:51.979Z,2.40
2022-08-22T22:01:15.131Z,2.50
2022-08-22T22:03:13.694Z,2.60
2022-08-22T22:07:07.531Z,2.50
2022-08-22T22:08:36.422Z,2.60
2022-08-22T22:11:04.679Z,2.80
2022-08-22T22:13:30.929Z,3.00
2022-08-22T22:15:29.042Z,2.50
2022-08-22T22:17:27.309Z,3.00
2022-08-22T22:18:55.995Z,2.30
2022-08-22T22:20:25.334Z,2.40
2022-08-22T22:24:48.420Z,2.90
2022-08-22T22:26:46.554Z,3.10
2022-08-22T22:29:42.783Z,3.00
2022-08-22T22:32:38.956Z,3.10
2022-08-22T22:39:27.851Z,2.30
2022-08-22T22:40:56.828Z,2.60
2022-08-22T22:48:44.194Z,2.50
2022-08-22T22:51:13.122Z,2.20
2022-08-22T22:52:41.194Z,2.90
2022-08-22T22:57:04.227Z,2.30
2022-08-22T22:59:33.591Z,3.00
2022-08-22T23:01:58.274Z,2.70
2022-08-22T23:10:16.705Z,2.70
2022-08-22T23:11:44.071Z,2.80
2022-08-22T23:13:43.121Z,2.70
2022-08-22T23:20:33.929Z,2.60
2022-08-22T23:23:30.595Z,3.20
2022-08-22T23:24:59.604Z,2.60
2022-08-22T23:26:57.984Z,2.60
2022-08-22T23:28:55.926Z,2.50
2022-08-22T23:30:24.976Z,2.70
2022-08-22T23:35:46.450Z,2.90
2022-08-22T23:37:44.540Z,2.50
2022-08-22T23:43:34.626Z,2.90
2022-08-22T23:49:27.402Z,3.00
2022-08-22T23:51:25.467Z,3.10
2022-08-22T23:53:52.579Z,3.20
2022-08-22T23:57:18.391Z,2.60
